sensor_id;sensor_type;location;lat;lon;timestamp;pressure;altitude;pressure_sealevel;temperature;humidity
41636;BME280;27623;51.966;4.602;2023-11-21T00:01:58;64345.28;;;10.47;100.00
41636;BME280;27623;51.966;4.602;2023-11-21T00:04:24;64343.28;;;10.40;100.00
41636;BME280;27623;51.966;4.602;2023-11-21T00:06:50;64340.56;;;10.30;100.00
41636;BME280;27623;51.966;4.602;2023-11-21T00:09:16;64311.47;;;10.15;100.00
41636;BME280;27623;51.966;4.602;2023-11-21T00:11:42;64343.13;;;10.30;100.00
41636;BME280;27623;51.966;4.602;2023-11-21T00:14:08;64326.16;;;10.43;100.00
41636;BME280;27623;51.966;4.602;2023-11-21T00:16:34;64355.81;;;10.52;100.00
41636;BME280;27623;51.966;4.602;2023-11-21T00:19:01;64344.91;;;10.56;100.00
41636;BME280;27623;51.966;4.602;2023-11-21T00:21:27;64369.13;;;10.52;100.00
41636;BME280;27623;51.966;4.602;2023-11-21T00:23:52;64374.03;;;10.57;100.00
41636;BME280;27623;51.966;4.602;2023-11-21T00:26:18;64363.47;;;10.59;100.00
41636;BME280;27623;51.966;4.602;2023-11-21T00:28:43;64355.44;;;10.68;100.00
41636;BME280;27623;51.966;4.602;2023-11-21T00:31:11;64366.19;;;10.61;100.00
41636;BME280;27623;51.966;4.602;2023-11-21T00:33:36;64376.03;;;10.56;100.00
41636;BME280;27623;51.966;4.602;2023-11-21T00:36:02;64386.75;;;10.64;100.00
41636;BME280;27623;51.966;4.602;2023-11-21T00:38:27;64374.00;;;10.71;100.00
41636;BME280;27623;51.966;4.602;2023-11-21T00:40:53;64369.81;;;10.77;100.00
41636;BME280;27623;51.966;4.602;2023-11-21T00:43:22;64388.53;;;10.82;100.00
41636;BME280;27623;51.966;4.602;2023-11-21T00:45:50;64384.16;;;10.85;100.00
41636;BME280;27623;51.966;4.602;2023-11-21T00:48:18;64402.72;;;10.81;100.00
41636;BME280;27623;51.966;4.602;2023-11-21T00:50:44;64378.88;;;10.90;100.00
41636;BME280;27623;51.966;4.602;2023-11-21T00:53:09;64384.16;;;10.92;100.00
41636;BME280;27623;51.966;4.602;2023-11-21T00:55:36;64412.56;;;10.97;100.00
41636;BME280;27623;51.966;4.602;2023-11-21T00:58:02;64405.63;;;11.00;100.00
41636;BME280;27623;51.966;4.602;2023-11-21T01:00:29;64424.94;;;10.92;100.00
41636;BME280;27623;51.966;4.602;2023-11-21T01:02:55;64381.06;;;10.92;100.00
41636;BME280;27623;51.966;4.602;2023-11-21T01:05:20;64401.09;;;10.94;100.00
41636;BME280;27623;51.966;4.602;2023-11-21T01:07:45;64401.81;;;10.97;100.00
41636;BME280;27623;51.966;4.602;2023-11-21T01:10:11;64400.72;;;10.96;100.00
41636;BME280;27623;51.966;4.602;2023-11-21T01:12:37;64416.94;;;10.87;100.00
41636;BME280;27623;51.966;4.602;2023-11-21T01:15:04;64397.25;;;10.97;100.00
41636;BME280;27623;51.966;4.602;2023-11-21T01:17:32;64431.69;;;11.01;100.00
41636;BME280;27623;51.966;4.602;2023-11-21T01:19:59;64387.63;;;10.91;100.00
41636;BME280;27623;51.966;4.602;2023-11-21T01:22:25;64430.75;;;11.02;100.00
41636;BME280;27623;51.966;4.602;2023-11-21T01:24:52;64393.44;;;11.01;100.00
41636;BME280;27623;51.966;4.602;2023-11-21T01:27:18;64395.09;;;10.88;100.00
41636;BME280;27623;51.966;4.602;2023-11-21T01:29:44;64370.00;;;10.79;100.00
41636;BME280;27623;51.966;4.602;2023-11-21T01:32:09;64384.53;;;10.83;100.00
41636;BME280;27623;51.966;4.602;2023-11-21T01:34:37;64379.97;;;10.84;100.00
41636;BME280;27623;51.966;4.602;2023-11-21T01:37:03;64398.91;;;10.92;100.00
41636;BME280;27623;51.966;4.602;2023-11-21T01:39:31;64415.13;;;10.90;100.00
41636;BME280;27623;51.966;4.602;2023-11-21T01:41:57;64397.81;;;10.91;100.00
41636;BME280;27623;51.966;4.602;2023-11-21T01:44:24;64415.47;;;10.95;100.00
41636;BME280;27623;51.966;4.602;2023-11-21T01:46:50;64428.38;;;11.05;100.00
41636;BME280;27623;51.966;4.602;2023-11-21T01:49:16;64421.47;;;11.01;100.00
41636;BME280;27623;51.966;4.602;2023-11-21T01:51:45;64426.38;;;11.06;100.00
41636;BME280;27623;51.966;4.602;2023-11-21T01:54:12;64395.78;;;11.13;100.00
41636;BME280;27623;51.966;4.602;2023-11-21T01:56:37;64434.34;;;11.25;100.00
41636;BME280;27623;51.966;4.602;2023-11-21T01:59:03;64458.75;;;11.31;100.00
41636;BME280;27623;51.966;4.602;2023-11-21T02:01:28;64451.28;;;11.26;100.00
41636;BME280;27623;51.966;4.602;2023-11-21T02:03:54;64436.34;;;11.24;100.00
41636;BME280;27623;51.966;4.602;2023-11-21T02:06:21;64456.59;;;11.22;100.00
41636;BME280;27623;51.966;4.602;2023-11-21T02:08:47;64424.19;;;11.18;100.00
41636;BME280;27623;51.966;4.602;2023-11-21T02:11:12;64401.78;;;11.11;100.00
41636;BME280;27623;51.966;4.602;2023-11-21T02:13:41;64423.09;;;11.02;100.00
41636;BME280;27623;51.966;4.602;2023-11-21T02:16:09;64448.59;;;11.02;100.00
41636;BME280;27623;51.966;4.602;2023-11-21T02:18:38;64416.38;;;11.01;100.00
41636;BME280;27623;51.966;4.602;2023-11-21T02:21:04;64390.69;;;10.98;100.00
41636;BME280;27623;51.966;4.602;2023-11-21T02:23:30;64415.84;;;11.00;100.00
41636;BME280;27623;51.966;4.602;2023-11-21T02:25:55;64418.19;;;11.05;100.00
41636;BME280;27623;51.966;4.602;2023-11-21T02:28:21;64407.44;;;11.12;100.00
41636;BME280;27623;51.966;4.602;2023-11-21T02:30:51;64428.75;;;11.10;100.00
41636;BME280;27623;51.966;4.602;2023-11-21T02:33:21;64422.34;;;11.14;100.00
41636;BME280;27623;51.966;4.602;2023-11-21T02:35:46;64442.41;;;11.16;100.00
41636;BME280;27623;51.966;4.602;2023-11-21T02:38:12;64410.69;;;11.15;100.00
41636;BME280;27623;51.966;4.602;2023-11-21T02:40:37;64395.22;;;11.12;100.00
41636;BME280;27623;51.966;4.602;2023-11-21T02:43:03;64410.53;;;11.12;100.00
41636;BME280;27623;51.966;4.602;2023-11-21T02:45:31;64449.13;;;11.17;100.00
41636;BME280;27623;51.966;4.602;2023-11-21T02:47:57;64418.53;;;11.17;100.00
41636;BME280;27623;51.966;4.602;2023-11-21T02:50:22;64450.22;;;11.25;100.00
41636;BME280;27623;51.966;4.602;2023-11-21T02:52:48;64436.94;;;11.18;100.00
41636;BME280;27623;51.966;4.602;2023-11-21T02:55:14;64415.63;;;11.19;100.00
41636;BME280;27623;51.966;4.602;2023-11-21T02:57:39;64415.81;;;11.15;100.00
41636;BME280;27623;51.966;4.602;2023-11-21T03:00:05;64435.09;;;11.21;100.00
41636;BME280;27623;51.966;4.602;2023-11-21T03:02:33;64442.41;;;11.16;100.00
41636;BME280;27623;51.966;4.602;2023-11-21T03:04:58;64436.38;;;11.17;100.00
41636;BME280;27623;51.966;4.602;2023-11-21T03:07:24;64439.63;;;11.27;100.00
41636;BME280;27623;51.966;4.602;2023-11-21T03:09:50;64463.31;;;11.30;100.00
41636;BME280;27623;51.966;4.602;2023-11-21T03:12:15;64473.16;;;11.32;100.00
41636;BME280;27623;51.966;4.602;2023-11-21T03:14:41;64452.56;;;11.30;100.00
41636;BME280;27623;51.966;4.602;2023-11-21T03:17:06;64440.19;;;11.28;100.00
41636;BME280;27623;51.966;4.602;2023-11-21T03:19:32;64437.66;;;11.21;100.00
41636;BME280;27623;51.966;4.602;2023-11-21T03:21:57;64445.84;;;11.28;100.00
41636;BME280;27623;51.966;4.602;2023-11-21T03:24:25;64443.09;;;11.40;100.00
41636;BME280;27623;51.966;4.602;2023-11-21T03:26:51;64483.00;;;11.34;100.00
41636;BME280;27623;51.966;4.602;2023-11-21T03:29:17;64452.75;;;11.32;100.00
41636;BME280;27623;51.966;4.602;2023-11-21T03:31:42;64443.81;;;11.36;100.00
41636;BME280;27623;51.966;4.602;2023-11-21T03:34:10;64470.06;;;11.39;100.00
41636;BME280;27623;51.966;4.602;2023-11-21T03:36:35;64460.56;;;11.42;100.00
41636;BME280;27623;51.966;4.602;2023-11-21T03:39:01;64442.72;;;11.35;100.00
41636;BME280;27623;51.966;4.602;2023-11-21T03:41:27;64454.03;;;11.36;100.00
41636;BME280;27623;51.966;4.602;2023-11-21T03:43:53;64472.06;;;11.39;100.00
41636;BME280;27623;51.966;4.602;2023-11-21T03:46:18;64434.69;;;11.44;100.00
41636;BME280;27623;51.966;4.602;2023-11-21T03:48:43;64467.31;;;11.36;100.00
41636;BME280;27623;51.966;4.602;2023-11-21T03:51:09;64474.78;;;11.34;100.00
41636;BME280;27623;51.966;4.602;2023-11-21T03:53:34;64456.41;;;11.33;100.00
41636;BME280;27623;51.966;4.602;2023-11-21T03:56:02;64469.16;;;11.33;100.00
41636;BME280;27623;51.966;4.602;2023-11-21T03:58:28;64443.47;;;11.31;100.00
41636;BME280;27623;51.966;4.602;2023-11-21T04:00:54;64458.75;;;11.31;100.00
41636;BME280;27623;51.966;4.602;2023-11-21T04:03:19;64459.31;;;11.31;100.00
41636;BME280;27623;51.966;4.602;2023-11-21T04:05:45;64444.91;;;11.30;100.00
41636;BME280;27623;51.966;4.602;2023-11-21T04:08:11;64451.28;;;11.33;100.00
41636;BME280;27623;51.966;4.602;2023-11-21T04:10:36;64457.84;;;11.40;100.00
41636;BME280;27623;51.966;4.602;2023-11-21T04:13:01;64470.25;;;11.42;100.00
41636;BME280;27623;51.966;4.602;2023-11-21T04:15:27;64454.19;;;11.46;100.00
41636;BME280;27623;51.966;4.602;2023-11-21T04:17:52;64456.03;;;11.43;100.00
41636;BME280;27623;51.966;4.602;2023-11-21T04:20:18;64466.03;;;11.47;100.00
41636;BME280;27623;51.966;4.602;2023-11-21T04:22:44;64454.19;;;11.46;100.00
41636;BME280;27623;51.966;4.602;2023-11-21T04:25:15;64472.94;;;11.44;100.00
41636;BME280;27623;51.966;4.602;2023-11-21T04:27:44;64496.84;;;11.43;100.00
41636;BME280;27623;51.966;4.602;2023-11-21T04:30:11;64474.78;;;11.41;100.00
41636;BME280;27623;51.966;4.602;2023-11-21T04:32:36;64478.97;;;11.43;100.00
41636;BME280;27623;51.966;4.602;2023-11-21T04:35:04;64441.06;;;11.41;100.00
41636;BME280;27623;51.966;4.602;2023-11-21T04:37:29;64472.41;;;11.44;100.00
41636;BME280;27623;51.966;4.602;2023-11-21T04:39:55;64470.94;;;11.45;100.00
41636;BME280;27623;51.966;4.602;2023-11-21T04:42:20;64478.06;;;11.44;100.00
41636;BME280;27623;51.966;4.602;2023-11-21T04:44:46;64466.19;;;11.50;100.00
41636;BME280;27623;51.966;4.602;2023-11-21T04:47:11;64518.69;;;11.49;100.00
41636;BME280;27623;51.966;4.602;2023-11-21T04:49:37;64497.91;;;11.51;100.00
41636;BME280;27623;51.966;4.602;2023-11-21T04:52:02;64456.91;;;11.48;100.00
41636;BME280;27623;51.966;4.602;2023-11-21T04:54:30;64493.72;;;11.56;100.00
41636;BME280;27623;51.966;4.602;2023-11-21T04:56:56;64530.91;;;11.55;100.00
41636;BME280;27623;51.966;4.602;2023-11-21T04:59:22;64507.22;;;11.52;100.00
41636;BME280;27623;51.966;4.602;2023-11-21T05:01:50;64482.97;;;11.56;100.00
41636;BME280;27623;51.966;4.602;2023-11-21T05:04:15;64446.34;;;11.50;100.00
41636;BME280;27623;51.966;4.602;2023-11-21T05:06:41;64478.78;;;11.54;100.00
41636;BME280;27623;51.966;4.602;2023-11-21T05:09:06;64491.34;;;11.59;100.00
41636;BME280;27623;51.966;4.602;2023-11-21T05:11:40;64472.38;;;11.58;100.00
41636;BME280;27623;51.966;4.602;2023-11-21T05:14:06;64503.56;;;11.58;100.00
41636;BME280;27623;51.966;4.602;2023-11-21T05:16:34;64499.53;;;11.59;100.00
41636;BME280;27623;51.966;4.602;2023-11-21T05:19:00;64461.44;;;11.55;100.00
41636;BME280;27623;51.966;4.602;2023-11-21T05:21:29;64476.22;;;11.54;100.00
41636;BME280;27623;51.966;4.602;2023-11-21T05:23:57;64477.69;;;11.53;100.00
41636;BME280;27623;51.966;4.602;2023-11-21T05:26:23;64485.69;;;11.51;100.00
41636;BME280;27623;51.966;4.602;2023-11-21T05:28:48;64474.41;;;11.57;100.00
41636;BME280;27623;51.966;4.602;2023-11-21T05:31:13;64481.88;;;11.55;100.00
41636;BME280;27623;51.966;4.602;2023-11-21T05:33:42;64488.44;;;11.54;100.00
41636;BME280;27623;51.966;4.602;2023-11-21T05:36:08;64485.88;;;11.61;100.00
41636;BME280;27623;51.966;4.602;2023-11-21T05:38:35;64470.19;;;11.56;100.00
41636;BME280;27623;51.966;4.602;2023-11-21T05:41:02;64479.50;;;11.50;100.00
41636;BME280;27623;51.966;4.602;2023-11-21T05:43:28;64457.81;;;11.54;100.00
41636;BME280;27623;51.966;4.602;2023-11-21T05:45:55;64480.41;;;11.56;100.00
41636;BME280;27623;51.966;4.602;2023-11-21T05:48:21;64438.13;;;11.50;100.00
41636;BME280;27623;51.966;4.602;2023-11-21T05:50:46;64495.91;;;11.58;100.00
41636;BME280;27623;51.966;4.602;2023-11-21T05:53:14;64451.44;;;11.50;100.00
41636;BME280;27623;51.966;4.602;2023-11-21T05:55:41;64511.59;;;11.49;100.00
41636;BME280;27623;51.966;4.602;2023-11-21T05:58:07;64517.06;;;11.47;100.00
41636;BME280;27623;51.966;4.602;2023-11-21T06:00:33;64472.41;;;11.44;100.00
41636;BME280;27623;51.966;4.602;2023-11-21T06:02:58;64467.50;;;11.39;100.00
41636;BME280;27623;51.966;4.602;2023-11-21T06:05:25;64470.25;;;11.42;100.00
41636;BME280;27623;51.966;4.602;2023-11-21T06:07:55;64478.22;;;11.47;100.00
41636;BME280;27623;51.966;4.602;2023-11-21T06:10:25;64465.69;;;11.42;100.00
41636;BME280;27623;51.966;4.602;2023-11-21T06:12:51;64460.72;;;11.45;100.00
41636;BME280;27623;51.966;4.602;2023-11-21T06:15:16;64503.03;;;11.44;100.00
41636;BME280;27623;51.966;4.602;2023-11-21T06:17:44;64454.38;;;11.41;100.00
41636;BME280;27623;51.966;4.602;2023-11-21T06:20:11;64478.44;;;11.42;100.00
41636;BME280;27623;51.966;4.602;2023-11-21T06:22:40;64486.97;;;11.48;100.00
41636;BME280;27623;51.966;4.602;2023-11-21T06:25:07;64469.84;;;11.44;100.00
41636;BME280;27623;51.966;4.602;2023-11-21T06:27:36;64452.91;;;11.49;100.00
41636;BME280;27623;51.966;4.602;2023-11-21T06:30:02;64478.78;;;11.47;100.00
41636;BME280;27623;51.966;4.602;2023-11-21T06:32:29;64494.81;;;11.50;100.00
41636;BME280;27623;51.966;4.602;2023-11-21T06:34:55;64480.59;;;11.51;100.00
41636;BME280;27623;51.966;4.602;2023-11-21T06:37:21;64462.38;;;11.53;100.00
41636;BME280;27623;51.966;4.602;2023-11-21T06:39:48;64509.94;;;11.55;100.00
41636;BME280;27623;51.966;4.602;2023-11-21T06:42:14;64512.69;;;11.57;100.00
41636;BME280;27623;51.966;4.602;2023-11-21T06:44:40;64503.75;;;11.54;100.00
41636;BME280;27623;51.966;4.602;2023-11-21T06:47:06;64500.84;;;11.49;100.00
41636;BME280;27623;51.966;4.602;2023-11-21T06:49:32;64463.09;;;11.49;100.00
41636;BME280;27623;51.966;4.602;2023-11-21T06:51:58;64486.25;;;11.45;100.00
41636;BME280;27623;51.966;4.602;2023-11-21T06:54:24;64470.25;;;11.34;100.00
41636;BME280;27623;51.966;4.602;2023-11-21T06:56:49;64463.13;;;11.28;100.00
41636;BME280;27623;51.966;4.602;2023-11-21T06:59:15;64436.00;;;11.26;100.00
41636;BME280;27623;51.966;4.602;2023-11-21T07:01:40;64462.78;;;11.30;100.00
41636;BME280;27623;51.966;4.602;2023-11-21T07:04:06;64461.88;;;11.24;100.00
41636;BME280;27623;51.966;4.602;2023-11-21T07:06:32;64434.56;;;11.20;100.00
41636;BME280;27623;51.966;4.602;2023-11-21T07:08:58;64439.28;;;11.22;100.00
41636;BME280;27623;51.966;4.602;2023-11-21T07:11:24;64474.97;;;11.29;100.00
41636;BME280;27623;51.966;4.602;2023-11-21T07:13:50;64457.66;;;11.30;100.00
41636;BME280;27623;51.966;4.602;2023-11-21T07:16:15;64476.44;;;11.35;100.00
41636;BME280;27623;51.966;4.602;2023-11-21T07:18:41;64473.53;;;11.38;100.00
41636;BME280;27623;51.966;4.602;2023-11-21T07:21:06;64450.53;;;11.45;100.00
41636;BME280;27623;51.966;4.602;2023-11-21T07:23:39;64460.94;;;11.40;100.00
41636;BME280;27623;51.966;4.602;2023-11-21T07:26:04;64489.38;;;11.38;100.00
41636;BME280;27623;51.966;4.602;2023-11-21T07:28:34;64478.59;;;11.45;100.00
41636;BME280;27623;51.966;4.602;2023-11-21T07:31:00;64464.75;;;11.51;100.00
41636;BME280;27623;51.966;4.602;2023-11-21T07:33:26;64472.75;;;11.49;100.00
41636;BME280;27623;51.966;4.602;2023-11-21T07:35:51;64463.09;;;11.49;100.00
41636;BME280;27623;51.966;4.602;2023-11-21T07:38:17;64483.88;;;11.47;100.00
41636;BME280;27623;51.966;4.602;2023-11-21T07:40:43;64490.06;;;11.48;100.00
41636;BME280;27623;51.966;4.602;2023-11-21T07:43:08;64488.06;;;11.49;100.00
41636;BME280;27623;51.966;4.602;2023-11-21T07:45:34;64466.19;;;11.50;100.00
41636;BME280;27623;51.966;4.602;2023-11-21T07:47:59;64513.41;;;11.53;100.00
41636;BME280;27623;51.966;4.602;2023-11-21T07:50:26;64505.56;;;11.58;100.00
41636;BME280;27623;51.966;4.602;2023-11-21T07:52:52;64485.88;;;11.61;100.00
41636;BME280;27623;51.966;4.602;2023-11-21T07:55:19;64524.88;;;11.64;100.00
41636;BME280;27623;51.966;4.602;2023-11-21T07:57:47;64486.56;;;11.64;100.00
41636;BME280;27623;51.966;4.602;2023-11-21T08:00:13;64509.94;;;11.62;100.00
41636;BME280;27623;51.966;4.602;2023-11-21T08:02:40;64502.44;;;11.64;100.00
41636;BME280;27623;51.966;4.602;2023-11-21T08:05:12;64512.28;;;11.66;100.00
41636;BME280;27623;51.966;4.602;2023-11-21T08:07:37;64503.53;;;11.65;100.00
41636;BME280;27623;51.966;4.602;2023-11-21T08:10:03;64504.81;;;11.69;100.00
41636;BME280;27623;51.966;4.602;2023-11-21T08:12:30;64530.53;;;11.79;100.00
41636;BME280;27623;51.966;4.602;2023-11-21T08:14:55;64508.81;;;11.75;100.00
41636;BME280;27623;51.966;4.602;2023-11-21T08:17:24;64487.69;;;11.79;100.00
41636;BME280;27623;51.966;4.602;2023-11-21T08:19:49;64548.41;;;11.79;100.00
41636;BME280;27623;51.966;4.602;2023-11-21T08:22:16;64499.72;;;11.76;100.00
41636;BME280;27623;51.966;4.602;2023-11-21T08:24:43;64536.91;;;11.82;100.00
41636;BME280;27623;51.966;4.602;2023-11-21T08:27:09;64508.63;;;11.87;100.00
41636;BME280;27623;51.966;4.602;2023-11-21T08:29:36;64513.56;;;11.84;100.00
41636;BME280;27623;51.966;4.602;2023-11-21T08:32:02;64537.25;;;11.87;100.00
41636;BME280;27623;51.966;4.602;2023-11-21T08:34:28;64552.03;;;11.87;100.00
41636;BME280;27623;51.966;4.602;2023-11-21T08:36:54;64533.41;;;11.91;100.00
41636;BME280;27623;51.966;4.602;2023-11-21T08:39:20;64539.63;;;11.92;100.00
41636;BME280;27623;51.966;4.602;2023-11-21T08:41:49;64557.66;;;11.94;100.00
41636;BME280;27623;51.966;4.602;2023-11-21T08:44:16;64570.97;;;12.02;100.00
41636;BME280;27623;51.966;4.602;2023-11-21T08:46:43;64564.38;;;12.10;100.00
41636;BME280;27623;51.966;4.602;2023-11-21T08:49:11;64549.41;;;12.15;100.00
41636;BME280;27623;51.966;4.602;2023-11-21T08:51:37;64577.34;;;12.13;100.00
41636;BME280;27623;51.966;4.602;2023-11-21T08:54:03;64581.34;;;12.19;100.00
41636;BME280;27623;51.966;4.602;2023-11-21T08:56:29;64585.91;;;12.18;100.00
41636;BME280;27623;51.966;4.602;2023-11-21T08:58:55;64554.34;;;12.20;100.00
41636;BME280;27623;51.966;4.602;2023-11-21T09:01:22;64559.09;;;12.22;100.00
41636;BME280;27623;51.966;4.602;2023-11-21T09:03:48;64574.41;;;12.22;100.00
41636;BME280;27623;51.966;4.602;2023-11-21T09:06:16;64580.94;;;12.28;100.00
41636;BME280;27623;51.966;4.602;2023-11-21T09:08:41;64586.59;;;12.28;100.00
41636;BME280;27623;51.966;4.602;2023-11-21T09:11:07;64590.81;;;12.30;100.00
41636;BME280;27623;51.966;4.602;2023-11-21T09:13:33;64604.69;;;12.24;100.00
41636;BME280;27623;51.966;4.602;2023-11-21T09:15:59;64592.63;;;12.27;100.00
41636;BME280;27623;51.966;4.602;2023-11-21T09:18:27;64601.22;;;12.32;100.00
41636;BME280;27623;51.966;4.602;2023-11-21T09:20:53;64604.50;;;12.28;100.00
41636;BME280;27623;51.966;4.602;2023-11-21T09:23:20;64582.59;;;12.29;100.00
41636;BME280;27623;51.966;4.602;2023-11-21T09:25:46;64563.25;;;12.30;100.00
41636;BME280;27623;51.966;4.602;2023-11-21T09:28:13;64601.75;;;12.33;100.00
41636;BME280;27623;51.966;4.602;2023-11-21T09:30:38;64608.16;;;12.29;100.00
41636;BME280;27623;51.966;4.602;2023-11-21T09:33:04;64602.50;;;12.29;100.00
41636;BME280;27623;51.966;4.602;2023-11-21T09:35:37;64583.91;;;12.26;100.00
41636;BME280;27623;51.966;4.602;2023-11-21T09:38:03;64545.03;;;12.25;100.00
41636;BME280;27623;51.966;4.602;2023-11-21T09:40:30;64589.72;;;12.29;100.00
41636;BME280;27623;51.966;4.602;2023-11-21T09:42:57;64577.69;;;12.25;100.00
41636;BME280;27623;51.966;4.602;2023-11-21T09:45:28;64584.97;;;12.27;100.00
41636;BME280;27623;51.966;4.602;2023-11-21T09:47:55;64582.41;;;12.27;100.00
41636;BME280;27623;51.966;4.602;2023-11-21T09:50:24;64578.41;;;12.28;100.00
41636;BME280;27623;51.966;4.602;2023-11-21T09:53:11;64590.47;;;12.25;100.00
41636;BME280;27623;51.966;4.602;2023-11-21T09:55:42;64564.69;;;12.36;100.00
41636;BME280;27623;51.966;4.602;2023-11-21T09:58:09;64589.53;;;12.33;100.00
41636;BME280;27623;51.966;4.602;2023-11-21T10:00:45;64611.59;;;12.35;100.00
41636;BME280;27623;51.966;4.602;2023-11-21T10:03:12;64608.31;;;12.32;100.00
41636;BME280;27623;51.966;4.602;2023-11-21T10:05:38;64613.81;;;12.30;100.00
41636;BME280;27623;51.966;4.602;2023-11-21T10:08:07;64623.66;;;12.32;100.00
41636;BME280;27623;51.966;4.602;2023-11-21T10:10:33;64609.25;;;12.30;100.00
41636;BME280;27623;51.966;4.602;2023-11-21T10:13:04;64561.44;;;12.26;100.00
41636;BME280;27623;51.966;4.602;2023-11-21T10:15:35;64569.28;;;12.29;100.00
41636;BME280;27623;51.966;4.602;2023-11-21T10:18:05;64566.38;;;12.24;100.00
41636;BME280;27623;51.966;4.602;2023-11-21T10:20:32;64587.69;;;12.29;100.00
41636;BME280;27623;51.966;4.602;2023-11-21T10:23:03;64589.88;;;12.31;100.00
41636;BME280;27623;51.966;4.602;2023-11-21T10:25:29;64576.56;;;12.31;100.00
41636;BME280;27623;51.966;4.602;2023-11-21T10:27:59;64616.91;;;12.30;100.00
41636;BME280;27623;51.966;4.602;2023-11-21T10:30:33;64567.09;;;12.27;100.00
41636;BME280;27623;51.966;4.602;2023-11-21T10:33:02;64578.59;;;12.23;100.00
41636;BME280;27623;51.966;4.602;2023-11-21T10:35:46;64608.72;;;12.23;100.00
41636;BME280;27623;51.966;4.602;2023-11-21T10:38:21;64571.31;;;12.21;100.00
41636;BME280;27623;51.966;4.602;2023-11-21T10:40:49;64565.84;;;12.23;100.00
41636;BME280;27623;51.966;4.602;2023-11-21T10:43:15;64591.38;;;12.23;100.00
41636;BME280;27623;51.966;4.602;2023-11-21T10:45:42;64586.28;;;12.23;100.00
41636;BME280;27623;51.966;4.602;2023-11-21T10:48:09;64569.09;;;12.26;100.00
41636;BME280;27623;51.966;4.602;2023-11-21T10:50:40;64595.91;;;12.30;100.00
41636;BME280;27623;51.966;4.602;2023-11-21T10:53:06;64575.47;;;12.30;100.00
41636;BME280;27623;51.966;4.602;2023-11-21T10:55:32;64591.53;;;12.33;100.00
41636;BME280;27623;51.966;4.602;2023-11-21T10:58:00;64598.66;;;12.32;100.00
41636;BME280;27623;51.966;4.602;2023-11-21T11:00:28;64595.00;;;12.31;100.00
41636;BME280;27623;51.966;4.602;2023-11-21T11:02:54;64569.09;;;12.33;100.00
41636;BME280;27623;51.966;4.602;2023-11-21T11:05:25;64601.22;;;12.32;100.00
41636;BME280;27623;51.966;4.602;2023-11-21T11:08:05;64580.75;;;12.32;100.00
41636;BME280;27623;51.966;4.602;2023-11-21T11:10:31;64587.50;;;12.34;100.00
41636;BME280;27623;51.966;4.602;2023-11-21T11:12:58;64581.50;;;12.35;100.00
41636;BME280;27623;51.966;4.602;2023-11-21T11:15:25;64580.22;;;12.39;100.00
41636;BME280;27623;51.966;4.602;2023-11-21T11:17:53;64570.88;;;12.45;100.00
41636;BME280;27623;51.966;4.602;2023-11-21T11:20:23;64611.41;;;12.39;100.00
41636;BME280;27623;51.966;4.602;2023-11-21T11:28:38;64594.81;;;12.43;100.00
41636;BME280;27623;51.966;4.602;2023-11-21T11:31:31;64605.03;;;12.43;100.00
41636;BME280;27623;51.966;4.602;2023-11-21T11:37:06;64623.09;;;12.46;100.00
41636;BME280;27623;51.966;4.602;2023-11-21T11:39:37;64588.41;;;12.47;100.00
41636;BME280;27623;51.966;4.602;2023-11-21T11:42:08;64611.94;;;12.47;100.00
41636;BME280;27623;51.966;4.602;2023-11-21T11:47:20;64606.31;;;12.47;100.00
41636;BME280;27623;51.966;4.602;2023-11-21T11:50:06;64619.25;;;12.49;100.00
41636;BME280;27623;51.966;4.602;2023-11-21T11:52:48;64554.25;;;12.48;100.00
41636;BME280;27623;51.966;4.602;2023-11-21T11:55:22;64607.59;;;12.43;100.00
41636;BME280;27623;51.966;4.602;2023-11-21T11:57:58;64571.28;;;12.35;100.00
41636;BME280;27623;51.966;4.602;2023-11-21T12:03:02;64615.06;;;12.33;100.00
41636;BME280;27623;51.966;4.602;2023-11-21T12:05:29;64604.66;;;12.38;100.00
41636;BME280;27623;51.966;4.602;2023-11-21T12:08:01;64609.94;;;12.48;100.00
41636;BME280;27623;51.966;4.602;2023-11-21T12:10:29;64566.31;;;12.45;100.00
41636;BME280;27623;51.966;4.602;2023-11-21T12:13:00;64605.22;;;12.46;100.00
41636;BME280;27623;51.966;4.602;2023-11-21T12:15:26;64611.06;;;12.42;100.00
41636;BME280;27623;51.966;4.602;2023-11-21T12:17:54;64609.03;;;12.42;100.00
41636;BME280;27623;51.966;4.602;2023-11-21T12:20:21;64599.56;;;12.38;100.00
41636;BME280;27623;51.966;4.602;2023-11-21T12:22:51;64608.50;;;12.34;100.00
41636;BME280;27623;51.966;4.602;2023-11-21T12:25:18;64599.75;;;12.41;100.00
41636;BME280;27623;51.966;4.602;2023-11-21T12:27:48;64617.63;;;12.41;100.00
41636;BME280;27623;51.966;4.602;2023-11-21T12:30:21;64608.84;;;12.47;100.00
41636;BME280;27623;51.966;4.602;2023-11-21T12:32:54;64588.59;;;12.42;100.00
41636;BME280;27623;51.966;4.602;2023-11-21T12:35:22;64589.88;;;12.46;100.00
41636;BME280;27623;51.966;4.602;2023-11-21T12:37:48;64616.34;;;12.44;100.00
41636;BME280;27623;51.966;4.602;2023-11-21T12:40:14;64626.53;;;12.58;100.00
41636;BME280;27623;51.966;4.602;2023-11-21T12:42:45;64590.03;;;12.55;100.00
41636;BME280;27623;51.966;4.602;2023-11-21T12:50:11;64609.91;;;12.55;100.00
41636;BME280;27623;51.966;4.602;2023-11-21T12:52:43;64623.78;;;12.56;100.00
41636;BME280;27623;51.966;4.602;2023-11-21T12:55:22;64600.44;;;12.51;100.00
41636;BME280;27623;51.966;4.602;2023-11-21T12:57:54;64581.44;;;12.50;100.00
41636;BME280;27623;51.966;4.602;2023-11-21T13:00:29;64589.69;;;12.43;100.00
41636;BME280;27623;51.966;4.602;2023-11-21T13:02:58;64608.69;;;12.44;100.00
41636;BME280;27623;51.966;4.602;2023-11-21T13:05:36;64602.06;;;12.52;100.00
41636;BME280;27623;51.966;4.602;2023-11-21T13:08:08;64624.91;;;12.50;100.00
41636;BME280;27623;51.966;4.602;2023-11-21T13:10:35;64621.78;;;12.56;100.00